sensor_id;sensor_type;location;lat;lon;timestamp;temperature;humidity
41058;DHT22;27499;48.884;2.258;2022-08-02T00:00:35;23.10;96.90
41058;DHT22;27499;48.884;2.258;2022-08-02T00:03:02;23.00;96.20
41058;DHT22;27499;48.884;2.258;2022-08-02T00:05:29;23.00;96.70
41058;DHT22;27499;48.884;2.258;2022-08-02T00:07:56;23.00;96.60
41058;DHT22;27499;48.884;2.258;2022-08-02T00:10:24;23.00;97.30
41058;DHT22;27499;48.884;2.258;2022-08-02T00:12:52;22.90;96.40
41058;DHT22;27499;48.884;2.258;2022-08-02T00:15:20;22.90;96.70
41058;DHT22;27499;48.884;2.258;2022-08-02T00:17:47;22.90;96.50
41058;DHT22;27499;48.884;2.258;2022-08-02T00:20:14;22.90;96.40
41058;DHT22;27499;48.884;2.258;2022-08-02T00:22:41;23.00;96.40
41058;DHT22;27499;48.884;2.258;2022-08-02T00:25:08;22.90;96.40
41058;DHT22;27499;48.884;2.258;2022-08-02T00:27:35;22.90;96.20
41058;DHT22;27499;48.884;2.258;2022-08-02T00:30:02;22.90;96.90
41058;DHT22;27499;48.884;2.258;2022-08-02T00:32:29;22.90;96.50
41058;DHT22;27499;48.884;2.258;2022-08-02T00:34:56;22.80;96.80
41058;DHT22;27499;48.884;2.258;2022-08-02T00:37:23;22.80;96.50
41058;DHT22;27499;48.884;2.258;2022-08-02T00:39:50;22.80;96.50
41058;DHT22;27499;48.884;2.258;2022-08-02T00:42:17;22.80;96.60
41058;DHT22;27499;48.884;2.258;2022-08-02T00:44:44;22.70;96.60
41058;DHT22;27499;48.884;2.258;2022-08-02T00:47:11;22.80;96.50
41058;DHT22;27499;48.884;2.258;2022-08-02T00:49:44;22.70;96.60
41058;DHT22;27499;48.884;2.258;2022-08-02T00:52:12;22.70;96.70
41058;DHT22;27499;48.884;2.258;2022-08-02T00:54:40;22.70;97.10
41058;DHT22;27499;48.884;2.258;2022-08-02T00:57:06;22.60;97.20
41058;DHT22;27499;48.884;2.258;2022-08-02T00:59:33;22.60;97.00
41058;DHT22;27499;48.884;2.258;2022-08-02T01:02:00;22.60;97.10
41058;DHT22;27499;48.884;2.258;2022-08-02T01:04:27;22.60;97.30
41058;DHT22;27499;48.884;2.258;2022-08-02T01:06:59;22.50;97.40
41058;DHT22;27499;48.884;2.258;2022-08-02T01:09:26;22.60;97.20
41058;DHT22;27499;48.884;2.258;2022-08-02T01:11:53;22.60;96.90
41058;DHT22;27499;48.884;2.258;2022-08-02T01:14:21;22.60;97.50
41058;DHT22;27499;48.884;2.258;2022-08-02T01:17:02;22.50;97.10
41058;DHT22;27499;48.884;2.258;2022-08-02T01:22:51;22.50;97.40
41058;DHT22;27499;48.884;2.258;2022-08-02T01:31:27;22.50;97.50
41058;DHT22;27499;48.884;2.258;2022-08-02T01:37:17;22.50;96.60
41058;DHT22;27499;48.884;2.258;2022-08-02T01:39:49;22.40;97.20
41058;DHT22;27499;48.884;2.258;2022-08-02T01:42:18;22.40;96.50
41058;DHT22;27499;48.884;2.258;2022-08-02T01:44:48;22.40;96.60
41058;DHT22;27499;48.884;2.258;2022-08-02T01:47:23;22.40;96.70
41058;DHT22;27499;48.884;2.258;2022-08-02T01:49:53;22.40;96.80
41058;DHT22;27499;48.884;2.258;2022-08-02T01:52:25;22.30;97.00
41058;DHT22;27499;48.884;2.258;2022-08-02T01:54:57;22.30;96.80
41058;DHT22;27499;48.884;2.258;2022-08-02T01:57:26;22.30;97.00
41058;DHT22;27499;48.884;2.258;2022-08-02T01:59:57;22.30;96.90
41058;DHT22;27499;48.884;2.258;2022-08-02T02:02:27;22.30;96.80
41058;DHT22;27499;48.884;2.258;2022-08-02T02:04:58;22.30;96.70
41058;DHT22;27499;48.884;2.258;2022-08-02T02:07:29;22.30;97.10
41058;DHT22;27499;48.884;2.258;2022-08-02T02:09:58;22.20;96.50
41058;DHT22;27499;48.884;2.258;2022-08-02T02:12:26;22.20;96.60
41058;DHT22;27499;48.884;2.258;2022-08-02T02:14:55;22.20;96.60
41058;DHT22;27499;48.884;2.258;2022-08-02T02:17:23;22.20;96.50
41058;DHT22;27499;48.884;2.258;2022-08-02T02:20:13;22.20;96.60
41058;DHT22;27499;48.884;2.258;2022-08-02T02:22:41;22.20;96.70
41058;DHT22;27499;48.884;2.258;2022-08-02T02:25:09;22.10;97.00
41058;DHT22;27499;48.884;2.258;2022-08-02T02:27:38;22.10;96.60
41058;DHT22;27499;48.884;2.258;2022-08-02T02:30:10;22.10;96.80
41058;DHT22;27499;48.884;2.258;2022-08-02T02:32:39;22.10;96.90
41058;DHT22;27499;48.884;2.258;2022-08-02T02:35:07;22.10;96.70
41058;DHT22;27499;48.884;2.258;2022-08-02T02:37:37;22.10;96.90
41058;DHT22;27499;48.884;2.258;2022-08-02T02:40:05;22.10;97.00
41058;DHT22;27499;48.884;2.258;2022-08-02T02:42:34;22.00;97.00
41058;DHT22;27499;48.884;2.258;2022-08-02T02:45:02;22.00;96.80
41058;DHT22;27499;48.884;2.258;2022-08-02T02:47:31;22.00;96.90
41058;DHT22;27499;48.884;2.258;2022-08-02T02:50:08;22.00;96.60
41058;DHT22;27499;48.884;2.258;2022-08-02T02:52:38;22.00;96.80
41058;DHT22;27499;48.884;2.258;2022-08-02T02:55:07;22.00;96.70
41058;DHT22;27499;48.884;2.258;2022-08-02T02:57:36;21.90;96.60
41058;DHT22;27499;48.884;2.258;2022-08-02T03:00:09;21.90;96.70
41058;DHT22;27499;48.884;2.258;2022-08-02T03:02:37;22.00;96.70
41058;DHT22;27499;48.884;2.258;2022-08-02T03:05:08;22.00;96.60
41058;DHT22;27499;48.884;2.258;2022-08-02T03:07:37;21.90;96.50
41058;DHT22;27499;48.884;2.258;2022-08-02T03:10:05;21.90;96.30
41058;DHT22;27499;48.884;2.258;2022-08-02T03:12:35;21.90;96.90
41058;DHT22;27499;48.884;2.258;2022-08-02T03:15:06;21.90;97.10
41058;DHT22;27499;48.884;2.258;2022-08-02T03:17:41;21.90;96.60
41058;DHT22;27499;48.884;2.258;2022-08-02T03:20:14;21.90;96.70
41058;DHT22;27499;48.884;2.258;2022-08-02T03:22:42;21.90;96.70
41058;DHT22;27499;48.884;2.258;2022-08-02T03:25:11;21.80;96.40
41058;DHT22;27499;48.884;2.258;2022-08-02T03:27:38;21.90;96.40
41058;DHT22;27499;48.884;2.258;2022-08-02T03:30:07;21.80;96.40
41058;DHT22;27499;48.884;2.258;2022-08-02T03:32:35;21.80;96.60
41058;DHT22;27499;48.884;2.258;2022-08-02T03:35:04;21.80;96.60
41058;DHT22;27499;48.884;2.258;2022-08-02T03:37:33;21.80;96.60
41058;DHT22;27499;48.884;2.258;2022-08-02T03:40:02;21.80;96.80
41058;DHT22;27499;48.884;2.258;2022-08-02T03:42:31;21.80;96.90
41058;DHT22;27499;48.884;2.258;2022-08-02T03:44:58;21.70;96.90
41058;DHT22;27499;48.884;2.258;2022-08-02T03:47:32;21.70;96.80
41058;DHT22;27499;48.884;2.258;2022-08-02T03:50:00;21.70;96.90
41058;DHT22;27499;48.884;2.258;2022-08-02T03:52:27;21.70;96.60
41058;DHT22;27499;48.884;2.258;2022-08-02T03:54:55;21.70;97.00
41058;DHT22;27499;48.884;2.258;2022-08-02T03:57:23;21.60;97.20
41058;DHT22;27499;48.884;2.258;2022-08-02T03:59:50;21.60;96.70
41058;DHT22;27499;48.884;2.258;2022-08-02T04:02:17;21.60;96.80
41058;DHT22;27499;48.884;2.258;2022-08-02T04:04:44;21.60;97.10
41058;DHT22;27499;48.884;2.258;2022-08-02T04:07:10;21.60;97.00
41058;DHT22;27499;48.884;2.258;2022-08-02T04:09:37;21.70;97.00
41058;DHT22;27499;48.884;2.258;2022-08-02T04:12:04;21.60;96.80
41058;DHT22;27499;48.884;2.258;2022-08-02T04:14:31;21.60;96.80
41058;DHT22;27499;48.884;2.258;2022-08-02T04:17:06;21.60;96.80
41058;DHT22;27499;48.884;2.258;2022-08-02T04:19:38;21.60;96.60
41058;DHT22;27499;48.884;2.258;2022-08-02T04:22:09;21.50;96.70
41058;DHT22;27499;48.884;2.258;2022-08-02T04:24:43;21.50;96.90
41058;DHT22;27499;48.884;2.258;2022-08-02T04:27:16;21.50;96.90
41058;DHT22;27499;48.884;2.258;2022-08-02T04:30:04;21.40;96.90
41058;DHT22;27499;48.884;2.258;2022-08-02T04:32:32;21.40;96.80
41058;DHT22;27499;48.884;2.258;2022-08-02T04:34:59;21.50;97.20
41058;DHT22;27499;48.884;2.258;2022-08-02T04:37:48;21.40;96.80
41058;DHT22;27499;48.884;2.258;2022-08-02T04:40:35;21.40;96.50
41058;DHT22;27499;48.884;2.258;2022-08-02T04:43:02;21.40;96.60
41058;DHT22;27499;48.884;2.258;2022-08-02T04:45:29;21.40;96.70
41058;DHT22;27499;48.884;2.258;2022-08-02T04:47:56;21.40;96.60
41058;DHT22;27499;48.884;2.258;2022-08-02T04:50:32;21.30;96.50
41058;DHT22;27499;48.884;2.258;2022-08-02T04:52:59;21.40;96.70
41058;DHT22;27499;48.884;2.258;2022-08-02T04:55:26;21.40;96.60
41058;DHT22;27499;48.884;2.258;2022-08-02T04:57:55;21.30;96.40
41058;DHT22;27499;48.884;2.258;2022-08-02T05:00:25;21.30;96.60
41058;DHT22;27499;48.884;2.258;2022-08-02T05:02:54;21.30;96.90
41058;DHT22;27499;48.884;2.258;2022-08-02T05:05:21;21.30;97.20
41058;DHT22;27499;48.884;2.258;2022-08-02T05:07:48;21.30;96.80
41058;DHT22;27499;48.884;2.258;2022-08-02T05:10:15;21.30;96.80
41058;DHT22;27499;48.884;2.258;2022-08-02T05:12:42;21.30;96.70
41058;DHT22;27499;48.884;2.258;2022-08-02T05:15:10;21.30;96.90
41058;DHT22;27499;48.884;2.258;2022-08-02T05:17:39;21.30;97.00
41058;DHT22;27499;48.884;2.258;2022-08-02T05:20:17;21.30;97.20
41058;DHT22;27499;48.884;2.258;2022-08-02T05:22:44;21.30;97.10
41058;DHT22;27499;48.884;2.258;2022-08-02T05:25:11;21.30;97.00
41058;DHT22;27499;48.884;2.258;2022-08-02T05:27:38;21.40;97.30
41058;DHT22;27499;48.884;2.258;2022-08-02T05:30:06;21.40;97.20
41058;DHT22;27499;48.884;2.258;2022-08-02T05:32:34;21.40;97.10
41058;DHT22;27499;48.884;2.258;2022-08-02T05:35:01;21.40;97.10
41058;DHT22;27499;48.884;2.258;2022-08-02T05:37:28;21.30;97.20
41058;DHT22;27499;48.884;2.258;2022-08-02T05:39:57;21.40;97.30
41058;DHT22;27499;48.884;2.258;2022-08-02T05:42:30;21.30;97.00
41058;DHT22;27499;48.884;2.258;2022-08-02T05:44:57;21.30;96.90
41058;DHT22;27499;48.884;2.258;2022-08-02T05:47:24;21.40;97.00
41058;DHT22;27499;48.884;2.258;2022-08-02T05:49:51;21.30;97.10
41058;DHT22;27499;48.884;2.258;2022-08-02T05:52:19;21.30;97.20
41058;DHT22;27499;48.884;2.258;2022-08-02T06:00:21;21.30;97.20
41058;DHT22;27499;48.884;2.258;2022-08-02T06:05:38;21.30;97.10
41058;DHT22;27499;48.884;2.258;2022-08-02T06:08:06;21.30;97.10
41058;DHT22;27499;48.884;2.258;2022-08-02T06:10:37;21.30;96.90
41058;DHT22;27499;48.884;2.258;2022-08-02T06:13:09;21.30;97.10
41058;DHT22;27499;48.884;2.258;2022-08-02T06:15:41;21.30;96.80
41058;DHT22;27499;48.884;2.258;2022-08-02T06:18:19;21.30;97.10
41058;DHT22;27499;48.884;2.258;2022-08-02T06:21:00;21.30;97.20
41058;DHT22;27499;48.884;2.258;2022-08-02T06:23:47;21.30;97.20
41058;DHT22;27499;48.884;2.258;2022-08-02T06:26:26;21.30;97.40
41058;DHT22;27499;48.884;2.258;2022-08-02T06:28:56;21.30;97.20
41058;DHT22;27499;48.884;2.258;2022-08-02T06:31:23;21.40;97.30
41058;DHT22;27499;48.884;2.258;2022-08-02T06:33:50;21.40;97.20
41058;DHT22;27499;48.884;2.258;2022-08-02T06:39:26;21.50;97.00
41058;DHT22;27499;48.884;2.258;2022-08-02T06:42:00;21.50;96.90
41058;DHT22;27499;48.884;2.258;2022-08-02T06:44:28;21.60;97.10
41058;DHT22;27499;48.884;2.258;2022-08-02T06:47:15;21.60;96.70
41058;DHT22;27499;48.884;2.258;2022-08-02T06:49:42;21.60;96.90
41058;DHT22;27499;48.884;2.258;2022-08-02T06:52:24;21.60;96.60
41058;DHT22;27499;48.884;2.258;2022-08-02T06:54:56;21.60;96.70
41058;DHT22;27499;48.884;2.258;2022-08-02T06:57:23;21.70;96.70
41058;DHT22;27499;48.884;2.258;2022-08-02T06:59:50;21.70;96.80
41058;DHT22;27499;48.884;2.258;2022-08-02T07:02:17;21.80;96.70
41058;DHT22;27499;48.884;2.258;2022-08-02T07:04:44;21.80;96.50
41058;DHT22;27499;48.884;2.258;2022-08-02T07:07:11;21.80;96.40
41058;DHT22;27499;48.884;2.258;2022-08-02T07:09:38;21.90;96.60
41058;DHT22;27499;48.884;2.258;2022-08-02T07:12:22;21.90;96.40
41058;DHT22;27499;48.884;2.258;2022-08-02T07:14:49;21.90;95.90
41058;DHT22;27499;48.884;2.258;2022-08-02T07:17:16;21.90;96.00
41058;DHT22;27499;48.884;2.258;2022-08-02T07:19:43;22.00;96.10
41058;DHT22;27499;48.884;2.258;2022-08-02T07:22:10;22.00;96.10
41058;DHT22;27499;48.884;2.258;2022-08-02T07:24:38;22.00;96.00
41058;DHT22;27499;48.884;2.258;2022-08-02T07:27:06;22.10;96.40
41058;DHT22;27499;48.884;2.258;2022-08-02T07:29:38;22.10;96.30
41058;DHT22;27499;48.884;2.258;2022-08-02T07:32:11;22.20;95.80
41058;DHT22;27499;48.884;2.258;2022-08-02T07:34:39;22.20;95.60
41058;DHT22;27499;48.884;2.258;2022-08-02T07:37:08;22.30;95.60
41058;DHT22;27499;48.884;2.258;2022-08-02T07:39:55;22.30;95.80
41058;DHT22;27499;48.884;2.258;2022-08-02T07:42:22;22.30;95.40
41058;DHT22;27499;48.884;2.258;2022-08-02T07:44:49;22.40;95.40
41058;DHT22;27499;48.884;2.258;2022-08-02T07:47:16;22.40;95.50
41058;DHT22;27499;48.884;2.258;2022-08-02T07:49:43;22.40;95.50
41058;DHT22;27499;48.884;2.258;2022-08-02T07:52:10;22.50;95.70
41058;DHT22;27499;48.884;2.258;2022-08-02T07:54:38;22.50;95.40
41058;DHT22;27499;48.884;2.258;2022-08-02T07:57:05;22.50;95.10
41058;DHT22;27499;48.884;2.258;2022-08-02T07:59:31;22.60;95.70
41058;DHT22;27499;48.884;2.258;2022-08-02T08:01:59;22.70;96.00
41058;DHT22;27499;48.884;2.258;2022-08-02T08:04:26;22.70;95.30
41058;DHT22;27499;48.884;2.258;2022-08-02T08:06:52;22.80;95.00
41058;DHT22;27499;48.884;2.258;2022-08-02T08:09:19;22.80;95.30
41058;DHT22;27499;48.884;2.258;2022-08-02T08:11:46;22.90;95.00
41058;DHT22;27499;48.884;2.258;2022-08-02T08:14:14;22.90;95.10
41058;DHT22;27499;48.884;2.258;2022-08-02T08:16:42;23.00;95.40
41058;DHT22;27499;48.884;2.258;2022-08-02T08:19:09;23.10;94.80
41058;DHT22;27499;48.884;2.258;2022-08-02T08:21:36;23.10;94.90
41058;DHT22;27499;48.884;2.258;2022-08-02T08:24:03;23.20;94.60
41058;DHT22;27499;48.884;2.258;2022-08-02T08:26:30;23.20;94.80
41058;DHT22;27499;48.884;2.258;2022-08-02T08:28:57;23.30;94.30
41058;DHT22;27499;48.884;2.258;2022-08-02T08:31:24;23.30;94.00
41058;DHT22;27499;48.884;2.258;2022-08-02T08:33:52;23.40;94.50
41058;DHT22;27499;48.884;2.258;2022-08-02T08:36:19;23.40;94.10
41058;DHT22;27499;48.884;2.258;2022-08-02T08:38:47;23.50;93.70
41058;DHT22;27499;48.884;2.258;2022-08-02T08:41:19;23.50;93.40
41058;DHT22;27499;48.884;2.258;2022-08-02T08:43:46;23.50;93.40
41058;DHT22;27499;48.884;2.258;2022-08-02T08:46:25;23.60;93.90
41058;DHT22;27499;48.884;2.258;2022-08-02T08:49:08;23.70;94.40
41058;DHT22;27499;48.884;2.258;2022-08-02T08:51:40;23.70;94.20
41058;DHT22;27499;48.884;2.258;2022-08-02T08:54:09;23.80;94.00
41058;DHT22;27499;48.884;2.258;2022-08-02T08:56:38;23.90;94.30
41058;DHT22;27499;48.884;2.258;2022-08-02T08:59:06;24.00;94.00
41058;DHT22;27499;48.884;2.258;2022-08-02T09:01:33;24.00;94.00
41058;DHT22;27499;48.884;2.258;2022-08-02T09:04:17;24.00;93.40
41058;DHT22;27499;48.884;2.258;2022-08-02T09:06:44;24.10;92.90
41058;DHT22;27499;48.884;2.258;2022-08-02T09:09:11;24.10;93.30
41058;DHT22;27499;48.884;2.258;2022-08-02T09:11:39;24.10;92.50
41058;DHT22;27499;48.884;2.258;2022-08-02T09:14:05;24.20;93.30
41058;DHT22;27499;48.884;2.258;2022-08-02T09:16:37;24.20;92.50
41058;DHT22;27499;48.884;2.258;2022-08-02T09:19:23;24.30;92.90
41058;DHT22;27499;48.884;2.258;2022-08-02T09:21:59;24.30;93.30
41058;DHT22;27499;48.884;2.258;2022-08-02T09:24:26;24.40;93.60
41058;DHT22;27499;48.884;2.258;2022-08-02T09:26:57;24.50;93.40
41058;DHT22;27499;48.884;2.258;2022-08-02T09:29:25;24.60;93.60
41058;DHT22;27499;48.884;2.258;2022-08-02T09:32:01;24.60;93.10
41058;DHT22;27499;48.884;2.258;2022-08-02T09:34:49;24.70;93.00
41058;DHT22;27499;48.884;2.258;2022-08-02T09:37:29;24.70;92.70
41058;DHT22;27499;48.884;2.258;2022-08-02T09:39:57;24.80;93.00
41058;DHT22;27499;48.884;2.258;2022-08-02T09:42:28;24.90;93.00
41058;DHT22;27499;48.884;2.258;2022-08-02T09:45:00;24.90;93.00
41058;DHT22;27499;48.884;2.258;2022-08-02T09:47:29;24.90;92.70
41058;DHT22;27499;48.884;2.258;2022-08-02T09:49:57;25.00;92.70
41058;DHT22;27499;48.884;2.258;2022-08-02T09:52:28;25.00;91.60
41058;DHT22;27499;48.884;2.258;2022-08-02T09:55:10;25.00;92.30
41058;DHT22;27499;48.884;2.258;2022-08-02T09:57:37;25.10;92.50
41058;DHT22;27499;48.884;2.258;2022-08-02T10:00:08;25.10;92.40
41058;DHT22;27499;48.884;2.258;2022-08-02T10:03:09;25.20;92.30
41058;DHT22;27499;48.884;2.258;2022-08-02T10:05:53;25.20;91.50
41058;DHT22;27499;48.884;2.258;2022-08-02T10:08:29;25.30;91.80
41058;DHT22;27499;48.884;2.258;2022-08-02T10:10:59;25.30;91.80
41058;DHT22;27499;48.884;2.258;2022-08-02T10:13:32;25.30;91.90
41058;DHT22;27499;48.884;2.258;2022-08-02T10:16:01;25.40;92.00
41058;DHT22;27499;48.884;2.258;2022-08-02T10:18:28;25.50;91.40
41058;DHT22;27499;48.884;2.258;2022-08-02T10:21:18;25.40;90.40
41058;DHT22;27499;48.884;2.258;2022-08-02T10:23:48;25.50;90.30
41058;DHT22;27499;48.884;2.258;2022-08-02T10:26:17;25.50;90.40
41058;DHT22;27499;48.884;2.258;2022-08-02T10:28:48;25.50;90.70
41058;DHT22;27499;48.884;2.258;2022-08-02T10:31:19;25.50;90.90
41058;DHT22;27499;48.884;2.258;2022-08-02T10:33:48;25.50;90.50
41058;DHT22;27499;48.884;2.258;2022-08-02T10:36:19;25.50;90.50
41058;DHT22;27499;48.884;2.258;2022-08-02T10:38:46;25.60;90.60
41058;DHT22;27499;48.884;2.258;2022-08-02T10:41:13;25.60;90.30
41058;DHT22;27499;48.884;2.258;2022-08-02T10:43:43;25.50;89.80
41058;DHT22;27499;48.884;2.258;2022-08-02T10:46:23;25.60;90.20
41058;DHT22;27499;48.884;2.258;2022-08-02T10:54:41;25.60;90.50
41058;DHT22;27499;48.884;2.258;2022-08-02T10:57:20;25.70;90.40
41058;DHT22;27499;48.884;2.258;2022-08-02T10:59:49;25.70;90.10
41058;DHT22;27499;48.884;2.258;2022-08-02T11:02:36;25.70;90.20
41058;DHT22;27499;48.884;2.258;2022-08-02T11:05:12;25.70;90.50
41058;DHT22;27499;48.884;2.258;2022-08-02T11:07:40;25.80;90.60
41058;DHT22;27499;48.884;2.258;2022-08-02T11:13:12;25.80;90.30
41058;DHT22;27499;48.884;2.258;2022-08-02T11:15:52;25.80;90.40
41058;DHT22;27499;48.884;2.258;2022-08-02T11:18:20;25.80;90.40
41058;DHT22;27499;48.884;2.258;2022-08-02T11:21:23;25.90;90.50
41058;DHT22;27499;48.884;2.258;2022-08-02T11:23:51;25.90;89.80
41058;DHT22;27499;48.884;2.258;2022-08-02T11:29:02;25.90;90.20
41058;DHT22;27499;48.884;2.258;2022-08-02T11:31:40;25.90;89.40
41058;DHT22;27499;48.884;2.258;2022-08-02T11:34:08;25.90;90.00
41058;DHT22;27499;48.884;2.258;2022-08-02T11:36:56;26.00;88.90
41058;DHT22;27499;48.884;2.258;2022-08-02T11:39:23;26.00;89.00
41058;DHT22;27499;48.884;2.258;2022-08-02T11:41:55;26.00;88.10
41058;DHT22;27499;48.884;2.258;2022-08-02T11:44:25;26.00;88.40
41058;DHT22;27499;48.884;2.258;2022-08-02T11:46:54;26.10;89.20
41058;DHT22;27499;48.884;2.258;2022-08-02T11:49:21;26.10;87.80
41058;DHT22;27499;48.884;2.258;2022-08-02T11:52:06;26.10;87.10
41058;DHT22;27499;48.884;2.258;2022-08-02T11:54:35;26.10;87.20
41058;DHT22;27499;48.884;2.258;2022-08-02T11:57:10;26.10;87.00
41058;DHT22;27499;48.884;2.258;2022-08-02T11:59:46;26.10;86.10
41058;DHT22;27499;48.884;2.258;2022-08-02T12:02:15;26.10;86.70
41058;DHT22;27499;48.884;2.258;2022-08-02T12:04:54;26.10;86.50
41058;DHT22;27499;48.884;2.258;2022-08-02T12:07:33;26.10;86.10
41058;DHT22;27499;48.884;2.258;2022-08-02T12:10:12;26.10;85.50
41058;DHT22;27499;48.884;2.258;2022-08-02T12:12:58;26.10;87.70
41058;DHT22;27499;48.884;2.258;2022-08-02T12:15:32;26.10;89.60
41058;DHT22;27499;48.884;2.258;2022-08-02T12:18:00;26.10;89.80
41058;DHT22;27499;48.884;2.258;2022-08-02T12:20:46;26.10;88.00
41058;DHT22;27499;48.884;2.258;2022-08-02T12:23:13;26.10;87.80
41058;DHT22;27499;48.884;2.258;2022-08-02T12:25:40;26.10;86.70
41058;DHT22;27499;48.884;2.258;2022-08-02T12:28:17;26.10;87.60
41058;DHT22;27499;48.884;2.258;2022-08-02T12:31:05;26.10;87.20
41058;DHT22;27499;48.884;2.258;2022-08-02T12:33:52;26.10;87.20
41058;DHT22;27499;48.884;2.258;2022-08-02T12:36:20;26.20;87.10
41058;DHT22;27499;48.884;2.258;2022-08-02T12:38:59;26.20;86.10
41058;DHT22;27499;48.884;2.258;2022-08-02T12:41:27;26.20;86.30
41058;DHT22;27499;48.884;2.258;2022-08-02T12:43:57;26.20;87.60
41058;DHT22;27499;48.884;2.258;2022-08-02T12:46:25;26.20;86.60
41058;DHT22;27499;48.884;2.258;2022-08-02T12:48:52;26.20;87.60
41058;DHT22;27499;48.884;2.258;2022-08-02T12:51:39;26.10;86.50
41058;DHT22;27499;48.884;2.258;2022-08-02T12:54:34;26.10;85.10
41058;DHT22;27499;48.884;2.258;2022-08-02T12:57:11;26.20;85.80
41058;DHT22;27499;48.884;2.258;2022-08-02T12:59:40;26.20;87.90
41058;DHT22;27499;48.884;2.258;2022-08-02T13:02:09;26.20;89.00
41058;DHT22;27499;48.884;2.258;2022-08-02T13:04:38;26.20;87.40
41058;DHT22;27499;48.884;2.258;2022-08-02T13:07:05;26.20;86.30
41058;DHT22;27499;48.884;2.258;2022-08-02T13:09:37;26.20;86.60
41058;DHT22;27499;48.884;2.258;2022-08-02T13:12:06;26.20;86.40
41058;DHT22;27499;48.884;2.258;2022-08-02T13:14:33;26.20;86.70
41058;DHT22;27499;48.884;2.258;2022-08-02T13:17:08;26.20;87.70
41058;DHT22;27499;48.884;2.258;2022-08-02T13:19:35;26.20;85.90
41058;DHT22;27499;48.884;2.258;2022-08-02T13:22:02;26.20;90.00
41058;DHT22;27499;48.884;2.258;2022-08-02T13:24:31;26.20;89.10
41058;DHT22;27499;48.884;2.258;2022-08-02T13:27:07;26.20;88.00
41058;DHT22;27499;48.884;2.258;2022-08-02T13:29:36;26.20;89.10
41058;DHT22;27499;48.884;2.258;2022-08-02T13:32:03;26.20;87.00
41058;DHT22;27499;48.884;2.258;2022-08-02T13:34:30;26.20;87.40
41058;DHT22;27499;48.884;2.258;2022-08-02T13:36:57;26.30;86.60
41058;DHT22;27499;48.884;2.258;2022-08-02T13:39:24;26.30;87.80
41058;DHT22;27499;48.884;2.258;2022-08-02T13:41:51;26.30;86.40
41058;DHT22;27499;48.884;2.258;2022-08-02T13:44:18;26.30;86.50
41058;DHT22;27499;48.884;2.258;2022-08-02T13:46:45;26.30;85.70
41058;DHT22;27499;48.884;2.258;2022-08-02T13:49:13;26.40;85.60
41058;DHT22;27499;48.884;2.258;2022-08-02T13:51:46;26.40;85.80
41058;DHT22;27499;48.884;2.258;2022-08-02T13:54:14;26.30;87.30
41058;DHT22;27499;48.884;2.258;2022-08-02T13:56:41;26.30;87.50
41058;DHT22;27499;48.884;2.258;2022-08-02T13:59:08;26.30;86.80
41058;DHT22;27499;48.884;2.258;2022-08-02T14:01:55;26.30;88.80
41058;DHT22;27499;48.884;2.258;2022-08-02T14:04:23;26.30;86.40
41058;DHT22;27499;48.884;2.258;2022-08-02T14:06:51;26.30;85.60
41058;DHT22;27499;48.884;2.258;2022-08-02T14:09:18;26.40;86.30
41058;DHT22;27499;48.884;2.258;2022-08-02T14:11:45;26.40;87.70
41058;DHT22;27499;48.884;2.258;2022-08-02T14:14:12;26.40;86.90
41058;DHT22;27499;48.884;2.258;2022-08-02T14:16:43;26.40;86.10
41058;DHT22;27499;48.884;2.258;2022-08-02T14:19:11;26.30;85.60
41058;DHT22;27499;48.884;2.258;2022-08-02T14:21:43;26.30;88.90
41058;DHT22;27499;48.884;2.258;2022-08-02T14:24:17;26.30;88.90
41058;DHT22;27499;48.884;2.258;2022-08-02T14:26:45;26.20;87.10
41058;DHT22;27499;48.884;2.258;2022-08-02T14:29:14;26.20;90.20
41058;DHT22;27499;48.884;2.258;2022-08-02T14:31:41;26.20;90.50
41058;DHT22;27499;48.884;2.258;2022-08-02T14:34:11;26.20;90.20
41058;DHT22;27499;48.884;2.258;2022-08-02T14:36:38;26.10;88.60
41058;DHT22;27499;48.884;2.258;2022-08-02T14:39:06;26.10;88.10
41058;DHT22;27499;48.884;2.258;2022-08-02T14:41:33;26.20;87.20
41058;DHT22;27499;48.884;2.258;2022-08-02T14:44:22;26.20;86.10
41058;DHT22;27499;48.884;2.258;2022-08-02T14:46:49;26.20;85.80
41058;DHT22;27499;48.884;2.258;2022-08-02T14:49:18;26.20;87.50
41058;DHT22;27499;48.884;2.258;2022-08-02T14:51:54;26.20;88.30
41058;DHT22;27499;48.884;2.258;2022-08-02T14:54:22;26.20;87.50
41058;DHT22;27499;48.884;2.258;2022-08-02T14:56:57;26.20;88.00
41058;DHT22;27499;48.884;2.258;2022-08-02T14:59:24;26.20;88.00
41058;DHT22;27499;48.884;2.258;2022-08-02T15:01:51;26.20;90.70
41058;DHT22;27499;48.884;2.258;2022-08-02T15:04:18;26.20;91.10
41058;DHT22;27499;48.884;2.258;2022-08-02T15:06:45;26.10;89.90
41058;DHT22;27499;48.884;2.258;2022-08-02T15:09:12;26.10;87.50
41058;DHT22;27499;48.884;2.258;2022-08-02T15:11:39;26.10;88.10
41058;DHT22;27499;48.884;2.258;2022-08-02T15:14:15;26.10;88.30
41058;DHT22;27499;48.884;2.258;2022-08-02T15:16:50;26.10;87.40
41058;DHT22;27499;48.884;2.258;2022-08-02T15:19:28;26.20;85.80
41058;DHT22;27499;48.884;2.258;2022-08-02T15:22:15;26.20;86.40
41058;DHT22;27499;48.884;2.258;2022-08-02T15:24:45;26.20;87.50
41058;DHT22;27499;48.884;2.258;2022-08-02T15:27:13;26.30;85.70
41058;DHT22;27499;48.884;2.258;2022-08-02T15:29:42;26.30;85.10
41058;DHT22;27499;48.884;2.258;2022-08-02T15:32:09;26.30;84.90
41058;DHT22;27499;48.884;2.258;2022-08-02T15:34:37;26.30;84.80
41058;DHT22;27499;48.884;2.258;2022-08-02T15:37:04;26.30;85.20
41058;DHT22;27499;48.884;2.258;2022-08-02T15:39:31;26.30;85.90
41058;DHT22;27499;48.884;2.258;2022-08-02T15:41:58;26.30;89.30
41058;DHT22;27499;48.884;2.258;2022-08-02T15:44:25;26.30;88.40
41058;DHT22;27499;48.884;2.258;2022-08-02T15:46:52;26.20;89.10
41058;DHT22;27499;48.884;2.258;2022-08-02T15:49:20;26.20;88.20
41058;DHT22;27499;48.884;2.258;2022-08-02T15:51:53;26.30;87.80
41058;DHT22;27499;48.884;2.258;2022-08-02T15:54:20;26.20;87.20
41058;DHT22;27499;48.884;2.258;2022-08-02T15:56:47;26.20;87.90
41058;DHT22;27499;48.884;2.258;2022-08-02T15:59:14;26.20;89.60
41058;DHT22;27499;48.884;2.258;2022-08-02T16:01:40;26.20;88.40
41058;DHT22;27499;48.884;2.258;2022-08-02T16:04:13;26.30;88.60
41058;DHT22;27499;48.884;2.258;2022-08-02T16:06:41;26.30;86.30
41058;DHT22;27499;48.884;2.258;2022-08-02T16:09:08;26.30;83.60
41058;DHT22;27499;48.884;2.258;2022-08-02T16:11:35;26.40;84.20
41058;DHT22;27499;48.884;2.258;2022-08-02T16:14:02;26.40;84.20
41058;DHT22;27499;48.884;2.258;2022-08-02T16:16:31;26.40;83.80
41058;DHT22;27499;48.884;2.258;2022-08-02T16:18:59;26.40;84.90
41058;DHT22;27499;48.884;2.258;2022-08-02T16:21:47;26.40;83.70
41058;DHT22;27499;48.884;2.258;2022-08-02T16:24:16;26.40;83.80
41058;DHT22;27499;48.884;2.258;2022-08-02T16:26:43;26.40;84.10